LPPS

Details ICAO LPPS (PXO)
Name Porto Santo
Region Portugal
Timezone Atlantic/Madeira (UTC+0.0)
Plans Departing 72
Arriving 77
Stats Elevation 340 ft / 104 m (AMSL)
Location 33.073413° -16.349946°
Runways 1
Magnetic Variation 4.818° W
Sunrise 2017-12-17 08:03:46 UTC / 2017-12-17 08:03:46 Local
Sunset 2017-12-17 18:02:03 UTC / 2017-12-17 18:02:03 Local
Advertisement - Login to hide

Runways

ID Width Length Bearing (true) Bearing (mag) Surface Threshold Offset Overrun Length
18 148 ft / 45 m 9,890 ft / 3,014 m 178.11° 182.93° Asphalt 0 ft / 0 m 0 ft / 0 m
36 148 ft / 45 m 9,890 ft / 3,014 m 358.12° 2.94° Asphalt 0 ft / 0 m 499 ft / 152 m

Map

Weather


0- 5 10 15 20 25 30 35+ Temperature / ° C

Clouds and Precipitation
Forecast for 2017-12-17 06:00 UTC. Updated an hour ago

Ground ~20,000 ft ~40,000 ft Winds

METAR

LPPS 170400Z 06010KT 9999 SCT015 SCT030 17/08 Q1027

TAF

TAF LPPS 162300Z 1700/1806 05012KT 9999 SCT015 SCT030 PROB30 TEMPO 1700/1721 05015G25KT

Frequencies

Tower 118.75 MHz TWR
Approach 123.30 MHz GCA
Tower 118.40 MHz TWR
Warning: Do not use this data for real-world aviation or navigation. No guarantee of current accuracy is given.